createdAt,value
2023-01-02T00:02:05.556Z,11.90
2023-01-02T00:04:33.480Z,12.00
2023-01-02T00:07:01.537Z,11.90
2023-01-02T00:09:30.827Z,11.90
2023-01-02T00:11:58.777Z,11.90
2023-01-02T00:14:26.736Z,11.80
2023-01-02T00:16:54.687Z,11.80
2023-01-02T00:19:22.631Z,11.80
2023-01-02T00:21:50.564Z,11.80
2023-01-02T00:24:18.576Z,11.80
2023-01-02T00:26:47.861Z,11.80
2023-01-02T00:29:15.791Z,11.80
2023-01-02T00:31:43.745Z,11.70
2023-01-02T00:34:11.681Z,11.70
2023-01-02T00:36:39.575Z,11.70
2023-01-02T00:39:07.527Z,11.70
2023-01-02T00:41:35.451Z,11.70
2023-01-02T00:44:04.839Z,11.80
2023-01-02T00:46:32.821Z,11.70
2023-01-02T00:49:00.767Z,11.70
2023-01-02T00:51:29.272Z,11.70
2023-01-02T00:53:57.222Z,11.70
2023-01-02T00:56:25.319Z,11.70
2023-01-02T00:58:53.311Z,11.70
2023-01-02T01:01:22.833Z,11.70
2023-01-02T01:03:50.826Z,11.60
2023-01-02T01:06:18.755Z,11.60
2023-01-02T01:08:46.679Z,11.60
2023-01-02T01:11:17.501Z,11.60
2023-01-02T01:13:45.713Z,11.60
2023-01-02T01:16:16.929Z,11.60
2023-01-02T01:18:47.143Z,11.60
2023-01-02T01:21:17.417Z,11.60
2023-01-02T01:23:46.451Z,11.60
2023-01-02T01:26:14.975Z,11.60
2023-01-02T01:28:42.914Z,11.60
2023-01-02T01:31:12.843Z,11.60
2023-01-02T01:33:41.821Z,11.60
2023-01-02T01:36:13.229Z,11.60
2023-01-02T01:38:41.819Z,11.50
2023-01-02T01:41:11.422Z,11.50
2023-01-02T01:43:42.314Z,11.40
2023-01-02T01:46:20.731Z,11.50
2023-01-02T01:48:53.544Z,11.50
2023-01-02T01:51:25.602Z,11.40
2023-01-02T01:53:58.641Z,11.50
2023-01-02T01:56:27.401Z,11.50
2023-01-02T01:58:55.610Z,11.40
2023-01-02T02:01:23.698Z,11.40
2023-01-02T02:03:52.653Z,11.40
2023-01-02T02:06:22.466Z,11.40
2023-01-02T02:08:56.048Z,11.40
2023-01-02T02:11:24.149Z,11.50
2023-01-02T02:13:52.770Z,11.40
2023-01-02T02:16:29.069Z,11.40
2023-01-02T02:19:41.079Z,11.20
2023-01-02T02:22:32.876Z,11.40
2023-01-02T02:25:34.248Z,11.40
2023-01-02T02:28:34.803Z,11.30
2023-01-02T02:31:09.190Z,11.30
2023-01-02T02:33:46.458Z,11.30
2023-01-02T02:36:22.091Z,11.30
2023-01-02T02:39:02.521Z,11.30
2023-01-02T02:41:36.130Z,11.30
2023-01-02T02:44:18.555Z,11.30
2023-01-02T02:46:54.383Z,11.30
2023-01-02T02:49:31.033Z,11.30
2023-01-02T02:52:05.048Z,11.30
2023-01-02T02:54:38.856Z,11.30
2023-01-02T02:57:08.806Z,11.40
2023-01-02T02:59:38.424Z,11.30
2023-01-02T03:02:07.880Z,11.30
2023-01-02T03:04:35.963Z,11.20
2023-01-02T03:07:16.699Z,11.20
2023-01-02T03:09:51.432Z,11.20
2023-01-02T03:12:29.996Z,11.20
2023-01-02T03:15:02.724Z,11.20
2023-01-02T03:17:43.125Z,11.20
2023-01-02T03:20:15.119Z,11.20
2023-01-02T03:22:48.200Z,11.20
2023-01-02T03:25:18.049Z,11.20
2023-01-02T03:27:48.804Z,11.20
2023-01-02T03:30:20.383Z,11.20
2023-01-02T03:32:54.031Z,11.20
2023-01-02T03:35:26.410Z,11.20
2023-01-02T03:37:57.206Z,11.20
2023-01-02T03:40:28.296Z,11.30
2023-01-02T03:43:02.920Z,11.20
2023-01-02T03:45:34.240Z,11.20
2023-01-02T03:48:10.911Z,11.20
2023-01-02T03:50:46.428Z,11.20
2023-01-02T03:53:14.992Z,11.20
2023-01-02T03:55:50.208Z,11.20
2023-01-02T03:58:27.209Z,11.20
2023-01-02T04:01:05.051Z,11.20
2023-01-02T04:03:39.887Z,11.20
2023-01-02T04:06:13.050Z,11.20
2023-01-02T04:08:47.227Z,11.20
2023-01-02T04:11:19.199Z,11.20
2023-01-02T04:13:50.667Z,11.20
2023-01-02T04:16:22.355Z,11.30
2023-01-02T04:18:55.904Z,11.20
2023-01-02T04:21:27.483Z,11.20
2023-01-02T04:24:00.452Z,11.10
2023-01-02T04:26:32.634Z,11.10
2023-01-02T04:29:00.863Z,11.10
2023-01-02T04:31:43.571Z,11.10
2023-01-02T04:34:16.239Z,11.10
2023-01-02T04:36:44.688Z,11.00
2023-01-02T04:39:12.636Z,11.00
2023-01-02T04:41:41.490Z,11.00
2023-01-02T04:44:09.443Z,11.00
2023-01-02T04:46:37.451Z,11.00
2023-01-02T04:49:05.419Z,11.10
2023-01-02T04:51:34.692Z,11.00
2023-01-02T04:54:02.982Z,10.90
2023-01-02T04:56:30.957Z,10.90
2023-01-02T04:58:59.003Z,10.90
2023-01-02T05:01:27.069Z,10.90
2023-01-02T05:03:55.214Z,10.80
2023-01-02T05:06:23.205Z,10.80
2023-01-02T05:08:52.813Z,10.80
2023-01-02T05:11:22.576Z,10.70
2023-01-02T05:13:50.565Z,10.70
2023-01-02T05:16:19.174Z,10.70
2023-01-02T05:18:47.104Z,10.70
2023-01-02T05:21:29.458Z,10.70
2023-01-02T05:24:01.498Z,10.70
2023-01-02T05:26:32.783Z,10.70
2023-01-02T05:29:01.806Z,10.70
2023-01-02T05:31:30.055Z,10.60
2023-01-02T05:33:59.749Z,10.60
2023-01-02T05:36:28.498Z,10.50
2023-01-02T05:38:57.963Z,10.50
2023-01-02T05:41:25.941Z,10.50
2023-01-02T05:43:55.568Z,10.60
2023-01-02T05:46:23.589Z,10.50
2023-01-02T05:48:51.558Z,10.50
2023-01-02T05:51:20.635Z,10.50
2023-01-02T05:53:48.640Z,10.50
2023-01-02T05:56:21.158Z,10.40
2023-01-02T05:58:50.586Z,10.40
2023-01-02T06:01:20.221Z,10.30
2023-01-02T06:03:49.073Z,10.30
2023-01-02T06:06:18.426Z,10.30
2023-01-02T06:08:46.857Z,10.30
2023-01-02T06:11:14.839Z,10.30
2023-01-02T06:13:44.299Z,10.30
2023-01-02T06:16:12.551Z,10.30
2023-01-02T06:18:41.395Z,10.30
2023-01-02T06:21:11.612Z,10.30
2023-01-02T06:23:40.202Z,10.30
2023-01-02T06:26:09.886Z,10.30
2023-01-02T06:28:38.760Z,10.30
2023-01-02T06:31:10.055Z,10.30
2023-01-02T06:33:39.013Z,10.30
2023-01-02T06:36:09.191Z,10.20
2023-01-02T06:38:37.306Z,10.20
2023-01-02T06:41:06.408Z,10.20
2023-01-02T06:43:34.882Z,10.10
2023-01-02T06:46:05.391Z,10.10
2023-01-02T06:48:35.647Z,10.00
2023-01-02T06:51:06.240Z,10.10
2023-01-02T06:53:35.326Z,10.10
2023-01-02T06:56:07.045Z,10.00
2023-01-02T06:58:36.925Z,10.00
2023-01-02T07:01:06.530Z,10.00
2023-01-02T07:03:36.216Z,10.10
2023-01-02T07:06:05.041Z,10.10
2023-01-02T07:08:33.801Z,10.10
2023-01-02T07:11:10.246Z,10.10
2023-01-02T07:13:38.942Z,10.20
2023-01-02T07:16:08.947Z,10.20
2023-01-02T07:18:38.458Z,10.20
2023-01-02T07:21:07.397Z,10.20
2023-01-02T07:23:35.444Z,10.20
2023-01-02T07:26:05.344Z,10.20
2023-01-02T07:28:34.692Z,10.30
2023-01-02T07:31:06.213Z,10.40
2023-01-02T07:33:35.237Z,10.30
2023-01-02T07:36:07.340Z,10.30
2023-01-02T07:38:36.052Z,10.20
2023-01-02T07:41:03.980Z,10.30
2023-01-02T07:43:31.919Z,10.30
2023-01-02T07:46:04.190Z,10.30
2023-01-02T07:48:32.263Z,10.30
2023-01-02T07:51:06.016Z,10.30
2023-01-02T07:53:34.007Z,10.30
2023-01-02T07:56:02.922Z,10.30
2023-01-02T07:58:31.268Z,10.30
2023-01-02T08:01:05.482Z,10.30
2023-01-02T08:03:34.315Z,10.30
2023-01-02T08:06:08.755Z,10.40
2023-01-02T08:08:37.194Z,10.40
2023-01-02T08:11:06.978Z,10.40
2023-01-02T08:13:35.159Z,10.40
2023-01-02T08:16:07.383Z,10.40
2023-01-02T08:18:35.584Z,10.50
2023-01-02T08:21:04.616Z,10.50
2023-01-02T08:23:34.407Z,10.60
2023-01-02T08:26:03.935Z,10.60
2023-01-02T08:28:32.395Z,10.80
2023-01-02T08:31:01.253Z,10.70
2023-01-02T08:33:29.352Z,10.70
2023-01-02T08:35:57.272Z,10.80
2023-01-02T08:38:25.246Z,10.80
2023-01-02T08:40:54.568Z,10.80
2023-01-02T08:43:22.589Z,10.90
2023-01-02T08:45:50.597Z,10.90
2023-01-02T08:48:20.907Z,11.00
2023-01-02T08:50:50.087Z,11.00
2023-01-02T08:53:18.146Z,11.10
2023-01-02T08:55:46.148Z,11.10
2023-01-02T08:58:15.458Z,11.10
2023-01-02T09:00:43.413Z,11.10
2023-01-02T09:03:11.357Z,11.20
2023-01-02T09:05:39.325Z,11.20
2023-01-02T09:08:07.326Z,11.20
2023-01-02T09:10:35.268Z,11.30
2023-01-02T09:13:03.226Z,11.30
2023-01-02T09:15:32.794Z,11.30
2023-01-02T09:18:00.797Z,11.50
2023-01-02T09:20:28.773Z,11.40
2023-01-02T09:22:56.692Z,11.50
2023-01-02T09:25:24.819Z,11.50
2023-01-02T09:27:53.066Z,11.50
2023-01-02T09:30:21.429Z,11.50
2023-01-02T09:32:50.933Z,11.60
2023-01-02T09:35:19.092Z,11.60
2023-01-02T09:37:47.020Z,11.60
2023-01-02T09:40:15.720Z,11.60
2023-01-02T09:42:44.957Z,11.60
2023-01-02T09:45:14.871Z,11.60
2023-01-02T09:47:45.162Z,11.60
2023-01-02T09:50:19.531Z,11.60
2023-01-02T09:52:54.743Z,11.70
2023-01-02T09:55:33.540Z,11.70
2023-01-02T09:58:10.502Z,11.70
2023-01-02T10:00:39.016Z,11.80
2023-01-02T10:03:17.997Z,11.80
2023-01-02T10:06:08.049Z,11.80
2023-01-02T10:08:44.188Z,11.90
2023-01-02T10:11:25.441Z,11.90
2023-01-02T10:16:48.713Z,12.00
2023-01-02T10:19:21.079Z,12.10
2023-01-02T10:21:53.428Z,12.10
2023-01-02T10:24:26.255Z,12.20
2023-01-02T10:26:55.026Z,12.20
2023-01-02T10:29:30.181Z,12.20
2023-01-02T10:32:01.488Z,12.20
2023-01-02T10:34:38.329Z,12.30
2023-01-02T10:37:14.021Z,12.30
2023-01-02T10:39:44.212Z,12.30
2023-01-02T10:42:14.833Z,12.30
2023-01-02T10:44:45.905Z,12.40
2023-01-02T10:47:20.310Z,12.40
2023-01-02T10:49:50.121Z,12.40
2023-01-02T10:52:25.315Z,12.40
2023-01-02T10:54:59.402Z,12.50
2023-01-02T10:57:56.906Z,12.50
2023-01-02T11:00:29.063Z,12.50
2023-01-02T11:02:59.995Z,12.50
2023-01-02T11:05:30.998Z,12.50
2023-01-02T11:08:00.917Z,12.50
2023-01-02T11:10:31.007Z,12.50
2023-01-02T11:13:03.502Z,12.50
2023-01-02T11:15:36.693Z,12.50
2023-01-02T11:18:12.925Z,12.50
2023-01-02T11:20:40.934Z,12.50
2023-01-02T11:23:16.850Z,12.50
2023-01-02T11:25:47.322Z,12.50
2023-01-02T11:28:19.519Z,12.50
2023-01-02T11:30:49.451Z,12.50
2023-01-02T11:33:28.080Z,12.50
2023-01-02T11:35:58.349Z,12.50
2023-01-02T11:38:30.877Z,12.50
2023-01-02T11:41:00.793Z,12.50
2023-01-02T11:43:49.332Z,12.50
2023-01-02T11:46:33.128Z,12.60
2023-01-02T11:49:05.371Z,12.60
2023-01-02T11:51:35.733Z,12.70
2023-01-02T11:54:12.857Z,12.70
2023-01-02T11:56:42.994Z,12.70
2023-01-02T11:59:18.500Z,12.70
2023-01-02T12:01:56.363Z,12.80
2023-01-02T12:04:24.979Z,12.70
2023-01-02T12:07:12.238Z,12.70
2023-01-02T12:09:52.350Z,12.70
2023-01-02T12:12:36.177Z,12.70
2023-01-02T12:15:40.541Z,12.70
2023-01-02T12:18:20.933Z,12.70
2023-01-02T12:20:56.487Z,12.70
2023-01-02T12:23:38.724Z,12.60
2023-01-02T12:26:12.847Z,12.70
2023-01-02T12:29:46.459Z,12.60
2023-01-02T12:32:41.062Z,12.60
2023-01-02T12:35:23.238Z,12.50
2023-01-02T12:37:55.604Z,12.40
2023-01-02T12:40:38.889Z,12.40
2023-01-02T12:43:41.502Z,12.40
2023-01-02T12:46:22.786Z,12.40
2023-01-02T12:49:09.365Z,12.40
2023-01-02T12:51:46.793Z,12.40
2023-01-02T12:54:37.661Z,12.40
2023-01-02T12:57:21.740Z,12.40
2023-01-02T13:00:04.752Z,12.30
2023-01-02T13:02:48.538Z,12.40
2023-01-02T13:05:20.831Z,12.40
2023-01-02T13:07:51.996Z,12.40
2023-01-02T13:10:23.454Z,12.40
2023-01-02T13:12:51.817Z,12.40
2023-01-02T13:15:25.550Z,12.40
2023-01-02T13:18:01.526Z,12.40
2023-01-02T13:20:38.290Z,12.50
2023-01-02T13:23:22.419Z,12.40
2023-01-02T13:25:53.701Z,12.50
2023-01-02T13:28:24.517Z,12.50
2023-01-02T13:31:45.493Z,12.50
2023-01-02T13:34:08.703Z,12.50
2023-01-02T13:36:39.952Z,12.50
2023-01-02T13:39:18.218Z,12.50
2023-01-02T13:42:09.782Z,12.60
2023-01-02T13:44:40.833Z,12.60
2023-01-02T13:47:25.562Z,12.50
2023-01-02T13:50:01.508Z,12.60
2023-01-02T13:52:29.594Z,12.60
2023-01-02T13:55:31.611Z,12.60
2023-01-02T13:58:25.251Z,12.60
2023-01-02T14:00:56.011Z,12.60
2023-01-02T14:03:39.196Z,12.60
2023-01-02T14:06:28.398Z,12.60
2023-01-02T14:09:12.176Z,12.60
2023-01-02T14:11:55.368Z,12.60
2023-01-02T14:14:33.373Z,12.60
2023-01-02T14:17:14.616Z,12.60
2023-01-02T14:19:44.646Z,12.60
2023-01-02T14:22:15.531Z,12.40
2023-01-02T14:24:46.119Z,12.50
2023-01-02T14:27:24.942Z,12.50
2023-01-02T14:29:55.901Z,12.50
2023-01-02T14:32:31.087Z,12.50
2023-01-02T14:35:01.465Z,12.50
2023-01-02T14:37:38.006Z,12.50
2023-01-02T14:40:38.382Z,12.50
2023-01-02T14:43:28.703Z,12.50
2023-01-02T14:46:00.808Z,12.50
2023-01-02T14:48:35.415Z,12.50
2023-01-02T14:51:09.339Z,12.50
2023-01-02T14:53:43.190Z,12.50
2023-01-02T14:56:15.690Z,12.50
2023-01-02T14:58:45.671Z,12.50
2023-01-02T15:01:43.553Z,12.50
2023-01-02T15:04:19.873Z,12.50
2023-01-02T15:06:52.087Z,12.60
2023-01-02T15:09:28.028Z,12.50
2023-01-02T15:12:14.984Z,12.40
2023-01-02T15:14:44.095Z,12.40
2023-01-02T15:17:15.823Z,12.40
2023-01-02T15:19:44.012Z,12.40
2023-01-02T15:22:17.230Z,12.40
2023-01-02T15:24:48.779Z,12.40
2023-01-02T15:27:23.618Z,12.40
2023-01-02T15:29:53.791Z,12.40
2023-01-02T15:32:23.453Z,12.40
2023-01-02T15:34:51.859Z,12.30
2023-01-02T15:37:23.584Z,12.30
2023-01-02T15:39:53.606Z,12.30
2023-01-02T15:42:43.227Z,12.30
2023-01-02T15:45:15.381Z,12.30
2023-01-02T15:47:46.909Z,12.20
2023-01-02T15:50:19.200Z,12.20
2023-01-02T15:52:51.244Z,12.20
2023-01-02T15:55:20.103Z,12.20
2023-01-02T15:57:50.339Z,12.20
2023-01-02T16:00:37.668Z,12.20
2023-01-02T16:03:06.240Z,12.20
2023-01-02T16:05:47.571Z,12.20
2023-01-02T16:08:22.951Z,12.20
2023-01-02T16:11:01.376Z,12.20
2023-01-02T16:13:49.694Z,12.20
2023-01-02T16:16:18.689Z,12.20
2023-01-02T16:18:51.489Z,12.20
2023-01-02T16:21:19.980Z,12.20
2023-01-02T16:23:53.648Z,12.20
2023-01-02T16:26:24.390Z,12.20
2023-01-02T16:28:52.373Z,12.30
2023-01-02T16:31:22.105Z,12.30
2023-01-02T16:33:50.500Z,12.30
2023-01-02T16:36:24.573Z,12.30
2023-01-02T16:38:55.882Z,12.40
2023-01-02T16:42:19.581Z,12.40
2023-01-02T16:44:55.179Z,12.40
2023-01-02T16:47:24.565Z,12.40
2023-01-02T16:49:52.651Z,12.50
2023-01-02T16:52:20.634Z,12.50
2023-01-02T16:54:54.056Z,12.50
2023-01-02T16:57:23.847Z,12.50
2023-01-02T16:59:51.802Z,12.50
2023-01-02T17:02:19.708Z,12.50
2023-01-02T17:04:47.744Z,12.50
2023-01-02T17:07:21.758Z,12.50
2023-01-02T17:09:51.622Z,12.50
2023-01-02T17:12:19.693Z,12.60
2023-01-02T17:14:47.618Z,12.50
2023-01-02T17:17:15.620Z,12.50
2023-01-02T17:19:43.612Z,12.40
2023-01-02T17:22:11.513Z,12.30
2023-01-02T17:24:39.690Z,12.30
2023-01-02T17:27:08.970Z,12.20
2023-01-02T17:29:36.878Z,12.20
2023-01-02T17:32:05.807Z,12.20
2023-01-02T17:34:34.240Z,12.10
2023-01-02T17:37:02.259Z,12.10
2023-01-02T17:39:30.230Z,11.80
2023-01-02T17:41:58.175Z,11.70
2023-01-02T17:44:27.483Z,11.70
2023-01-02T17:47:30.497Z,11.60
2023-01-02T17:49:43.940Z,11.50
2023-01-02T17:52:13.513Z,11.50
2023-01-02T17:54:41.476Z,11.50
2023-01-02T17:57:10.918Z,11.40
2023-01-02T17:59:41.483Z,11.40
2023-01-02T18:02:11.045Z,11.40
2023-01-02T18:04:39.747Z,11.40
2023-01-02T18:07:07.721Z,11.40
2023-01-02T18:09:35.667Z,11.40
2023-01-02T18:12:03.616Z,11.40
2023-01-02T18:14:31.545Z,11.40
2023-01-02T18:17:03.076Z,11.40
2023-01-02T18:19:33.318Z,11.30
2023-01-02T18:22:01.235Z,11.30
2023-01-02T18:24:31.552Z,11.30
2023-01-02T18:27:16.038Z,11.30
2023-01-02T18:29:45.022Z,11.30
2023-01-02T18:32:18.732Z,11.30
2023-01-02T18:34:48.945Z,11.30
2023-01-02T18:37:23.023Z,11.20
2023-01-02T18:39:51.937Z,11.20
2023-01-02T18:42:37.894Z,11.20
2023-01-02T18:45:16.925Z,11.20
2023-01-02T18:47:47.624Z,11.20
2023-01-02T18:50:32.471Z,11.20
2023-01-02T18:53:00.632Z,11.30
2023-01-02T18:55:34.108Z,11.30
2023-01-02T18:58:24.250Z,11.30
2023-01-02T19:00:53.600Z,11.30
2023-01-02T19:03:26.731Z,11.30
2023-01-02T19:05:55.379Z,11.30
2023-01-02T19:08:25.132Z,11.30
2023-01-02T19:10:55.299Z,11.30
2023-01-02T19:13:24.521Z,11.30
2023-01-02T19:15:57.091Z,11.30
2023-01-02T19:18:35.404Z,11.30
2023-01-02T19:21:13.761Z,11.30
2023-01-02T19:23:47.061Z,11.40
2023-01-02T19:26:24.815Z,11.40
2023-01-02T19:28:57.721Z,11.40
2023-01-02T19:31:26.386Z,11.50
2023-01-02T19:33:58.558Z,11.50
2023-01-02T19:36:36.767Z,11.60
2023-01-02T19:39:20.691Z,11.60
2023-01-02T19:42:06.295Z,11.50
2023-01-02T19:44:34.199Z,11.70
2023-01-02T19:47:02.126Z,11.70
2023-01-02T19:49:31.680Z,11.70
2023-01-02T19:51:59.601Z,11.70
2023-01-02T19:54:27.585Z,11.80
2023-01-02T19:56:55.604Z,11.80
2023-01-02T19:59:23.623Z,11.80
2023-01-02T20:01:51.639Z,11.90
2023-01-02T20:04:19.717Z,12.00
2023-01-02T20:06:49.002Z,12.10
2023-01-02T20:09:19.578Z,12.10
2023-01-02T20:12:07.765Z,12.20
2023-01-02T20:14:35.904Z,12.20
2023-01-02T20:17:04.009Z,12.20
2023-01-02T20:19:32.229Z,12.30
2023-01-02T20:22:01.761Z,12.30
2023-01-02T20:24:29.844Z,12.30
2023-01-02T20:26:59.549Z,12.30
2023-01-02T20:29:28.055Z,12.30
2023-01-02T20:31:56.505Z,12.30
2023-01-02T20:34:24.556Z,12.30
2023-01-02T20:36:52.513Z,12.30
2023-01-02T20:39:21.858Z,12.20
2023-01-02T20:41:49.911Z,12.20
2023-01-02T20:44:18.024Z,12.20
2023-01-02T20:46:46.136Z,12.10
2023-01-02T20:49:14.078Z,12.10
2023-01-02T20:51:42.030Z,12.10
2023-01-02T20:54:10.792Z,12.10
2023-01-02T20:56:40.051Z,12.10
2023-01-02T20:59:08.040Z,12.00
2023-01-02T21:01:36.113Z,12.00
2023-01-02T21:04:04.185Z,12.00
2023-01-02T21:06:32.374Z,12.00
2023-01-02T21:09:01.732Z,11.90
2023-01-02T21:11:29.878Z,11.90
2023-01-02T21:14:01.418Z,11.90
2023-01-02T21:16:29.367Z,12.00
2023-01-02T21:18:59.865Z,11.90
2023-01-02T21:21:30.647Z,12.00
2023-01-02T21:23:58.622Z,11.90
2023-01-02T21:26:26.549Z,12.00
2023-01-02T21:28:54.489Z,12.00
2023-01-02T21:31:23.914Z,12.00
2023-01-02T21:33:51.846Z,12.00
2023-01-02T21:36:19.785Z,12.00
2023-01-02T21:38:47.677Z,12.00
2023-01-02T21:41:32.819Z,12.00
2023-01-02T21:44:00.788Z,12.00
2023-01-02T21:46:30.291Z,12.00
2023-01-02T21:48:58.227Z,12.10
2023-01-02T21:51:32.141Z,12.00
2023-01-02T21:54:00.586Z,12.10
2023-01-02T21:56:28.659Z,12.10
2023-01-02T21:58:57.593Z,12.10
2023-01-02T22:01:25.810Z,12.10
2023-01-02T22:03:57.288Z,12.10
2023-01-02T22:06:25.789Z,12.10
2023-01-02T22:08:53.827Z,12.10
2023-01-02T22:11:38.659Z,12.00
2023-01-02T22:14:06.702Z,12.10
2023-01-02T22:16:34.677Z,12.00
2023-01-02T22:19:04.023Z,12.10
2023-01-02T22:21:32.391Z,12.00
2023-01-02T22:24:00.333Z,12.00
2023-01-02T22:26:28.717Z,12.10
2023-01-02T22:28:57.598Z,12.00
2023-01-02T22:31:25.988Z,12.00
2023-01-02T22:33:56.006Z,12.00
2023-01-02T22:36:26.179Z,12.00
2023-01-02T22:39:26.603Z,12.00
2023-01-02T22:41:44.515Z,12.00
2023-01-02T22:44:14.562Z,11.90
2023-01-02T22:46:46.610Z,11.90
2023-01-02T22:49:17.226Z,11.90
2023-01-02T22:52:06.613Z,11.80
2023-01-02T22:54:34.884Z,11.80
2023-01-02T22:57:02.829Z,11.80
2023-01-02T22:59:30.737Z,11.80
2023-01-02T23:01:58.736Z,11.80
2023-01-02T23:04:26.870Z,11.70
2023-01-02T23:09:44.156Z,11.60
2023-01-02T23:12:12.125Z,11.60
2023-01-02T23:14:40.710Z,11.50
2023-01-02T23:17:41.848Z,11.50
2023-01-02T23:20:10.400Z,11.50
2023-01-02T23:22:39.805Z,11.40
2023-01-02T23:25:08.344Z,11.40
2023-01-02T23:27:36.343Z,11.40
2023-01-02T23:30:05.027Z,11.40
2023-01-02T23:32:32.971Z,11.40
2023-01-02T23:35:00.892Z,11.30
2023-01-02T23:37:31.667Z,11.40
2023-01-02T23:40:00.911Z,11.20
2023-01-02T23:42:28.819Z,11.30
2023-01-02T23:44:57.523Z,11.20
2023-01-02T23:47:25.438Z,11.20
2023-01-02T23:49:53.346Z,11.30
2023-01-02T23:52:21.384Z,11.20
2023-01-02T23:54:49.304Z,11.10
2023-01-02T23:57:18.611Z,11.10
2023-01-02T23:59:46.571Z,11.10
